createdAt,value
2017-09-26T00:00:48.748Z,99.99
2017-09-26T00:01:58.697Z,99.99
2017-09-26T00:03:08.642Z,99.99
2017-09-26T00:04:18.911Z,99.99
2017-09-26T00:05:29.180Z,99.99
2017-09-26T00:06:39.126Z,99.99
2017-09-26T00:07:49.074Z,99.99
2017-09-26T00:08:59.347Z,99.99
2017-09-26T00:10:09.307Z,99.99
2017-09-26T00:11:19.265Z,99.99
2017-09-26T00:12:29.212Z,99.99
2017-09-26T00:13:39.168Z,99.99
2017-09-26T00:14:49.128Z,99.99
2017-09-26T00:15:59.402Z,99.99
2017-09-26T00:17:09.681Z,99.99
2017-09-26T00:18:19.956Z,99.99
2017-09-26T00:19:30.226Z,99.99
2017-09-26T00:20:40.176Z,99.99
2017-09-26T00:21:50.456Z,99.99
2017-09-26T00:23:00.737Z,99.99
2017-09-26T00:24:10.696Z,99.99
2017-09-26T00:25:20.974Z,99.99
2017-09-26T00:26:31.260Z,99.99
2017-09-26T00:27:41.218Z,99.99
2017-09-26T00:28:51.505Z,99.99
2017-09-26T00:30:01.838Z,99.99
2017-09-26T00:31:12.120Z,99.99
2017-09-26T00:32:22.085Z,99.99
2017-09-26T00:33:32.039Z,99.99
2017-09-26T00:34:41.676Z,99.99
2017-09-26T00:35:51.958Z,99.99
2017-09-26T00:37:02.301Z,99.99
2017-09-26T00:38:12.582Z,99.99
2017-09-26T00:39:22.541Z,99.99
2017-09-26T00:40:32.500Z,99.99
2017-09-26T00:41:42.782Z,99.99
2017-09-26T00:42:53.077Z,99.99
2017-09-26T00:44:03.037Z,99.99
2017-09-26T00:45:13.346Z,99.99
2017-09-26T00:46:23.617Z,99.99
2017-09-26T00:47:33.900Z,99.99
2017-09-26T00:48:44.174Z,99.99
2017-09-26T00:49:54.456Z,99.99
2017-09-26T00:51:04.735Z,99.99
2017-09-26T00:52:14.691Z,99.99
2017-09-26T00:53:24.970Z,99.99
2017-09-26T00:54:35.258Z,99.99
2017-09-26T00:55:45.547Z,99.99
2017-09-26T00:56:55.830Z,99.99
2017-09-26T00:58:06.148Z,99.99
2017-09-26T00:59:16.105Z,99.99
2017-09-26T01:00:26.381Z,99.99
2017-09-26T01:01:36.672Z,99.99
2017-09-26T01:02:46.949Z,99.99
2017-09-26T01:03:56.907Z,99.99
2017-09-26T01:05:06.861Z,99.99
2017-09-26T01:06:16.816Z,99.99
2017-09-26T01:07:26.449Z,99.99
2017-09-26T01:08:36.722Z,99.99
2017-09-26T01:09:46.676Z,99.99
2017-09-26T01:10:56.975Z,99.99
2017-09-26T01:12:07.249Z,99.99
2017-09-26T01:13:17.531Z,99.99
2017-09-26T01:14:27.801Z,99.99
2017-09-26T01:15:38.075Z,99.99
2017-09-26T01:16:48.025Z,99.99
2017-09-26T01:17:58.304Z,99.99
2017-09-26T01:19:08.258Z,99.99
2017-09-26T01:20:18.537Z,99.99
2017-09-26T01:21:28.810Z,99.99
2017-09-26T01:22:39.082Z,99.99
2017-09-26T01:23:49.363Z,99.99
2017-09-26T01:24:59.317Z,99.99
2017-09-26T01:26:09.277Z,99.99
2017-09-26T01:27:19.229Z,99.99
2017-09-26T01:28:29.509Z,99.99
2017-09-26T01:29:39.787Z,99.99
2017-09-26T01:30:49.737Z,99.99
2017-09-26T01:32:00.009Z,99.99
2017-09-26T01:33:10.281Z,99.99
2017-09-26T01:34:20.556Z,99.99
2017-09-26T01:35:30.830Z,99.99
2017-09-26T01:36:40.779Z,99.99
2017-09-26T01:37:51.054Z,99.99
2017-09-26T01:39:01.017Z,99.99
2017-09-26T01:40:11.325Z,99.99
2017-09-26T01:41:21.594Z,99.99
2017-09-26T01:42:31.870Z,99.99
2017-09-26T01:43:41.831Z,99.99
2017-09-26T01:44:52.110Z,99.99
2017-09-26T01:46:01.736Z,99.99
2017-09-26T01:47:11.364Z,99.99
2017-09-26T01:48:21.642Z,99.99
2017-09-26T01:49:31.919Z,99.99
2017-09-26T01:50:42.190Z,99.99
2017-09-26T01:51:52.466Z,99.99
2017-09-26T01:53:02.741Z,99.99
2017-09-26T01:54:13.021Z,99.99
2017-09-26T01:55:22.975Z,99.99
2017-09-26T01:56:33.263Z,99.99
2017-09-26T01:57:43.219Z,99.99
2017-09-26T01:58:53.494Z,99.99
2017-09-26T02:00:03.773Z,99.99
2017-09-26T02:01:13.731Z,99.99
2017-09-26T02:02:23.687Z,99.99
2017-09-26T02:03:33.963Z,99.99
2017-09-26T02:04:43.605Z,99.99
2017-09-26T02:05:53.876Z,99.99
2017-09-26T02:07:03.831Z,99.99
2017-09-26T02:08:14.203Z,99.99
2017-09-26T02:09:24.163Z,99.99
2017-09-26T02:10:34.126Z,99.99
2017-09-26T02:11:44.079Z,99.99
2017-09-26T02:12:54.029Z,99.99
2017-09-26T02:14:04.130Z,99.99
2017-09-26T02:15:14.411Z,99.99
2017-09-26T02:16:24.362Z,99.99
2017-09-26T02:17:34.635Z,99.99
2017-09-26T02:18:44.914Z,99.99
2017-09-26T02:19:55.189Z,99.99
2017-09-26T02:21:05.460Z,99.99
2017-09-26T02:22:15.737Z,99.99
2017-09-26T02:23:26.012Z,99.99
2017-09-26T02:24:36.302Z,99.99
2017-09-26T02:25:46.575Z,99.99
2017-09-26T02:26:56.846Z,99.99
2017-09-26T02:28:06.804Z,99.99
2017-09-26T02:29:16.114Z,99.99
2017-09-26T02:30:26.388Z,99.99
2017-09-26T02:31:36.669Z,99.99
2017-09-26T02:32:46.317Z,99.99
2017-09-26T02:33:56.598Z,99.99
2017-09-26T02:35:06.550Z,99.99
2017-09-26T02:36:16.188Z,99.99
2017-09-26T02:37:26.148Z,99.99
2017-09-26T02:38:36.104Z,99.99
2017-09-26T02:39:46.056Z,99.99
2017-09-26T02:40:56.016Z,99.99
2017-09-26T02:42:06.304Z,99.99
2017-09-26T02:43:16.586Z,99.99
2017-09-26T02:44:26.542Z,99.99
2017-09-26T02:45:36.815Z,99.99
2017-09-26T02:46:46.783Z,99.99
2017-09-26T02:47:56.420Z,99.99
2017-09-26T02:49:06.069Z,99.99
2017-09-26T02:50:15.704Z,99.99
2017-09-26T02:51:25.982Z,99.99
2017-09-26T02:52:36.260Z,99.99
2017-09-26T02:53:46.533Z,99.99
2017-09-26T02:54:56.485Z,99.99
2017-09-26T02:56:06.438Z,99.99
2017-09-26T02:57:15.745Z,99.99
2017-09-26T02:58:25.705Z,99.99
2017-09-26T02:59:35.334Z,99.99
2017-09-26T03:00:45.613Z,99.99
2017-09-26T03:01:55.578Z,99.99
2017-09-26T03:03:05.211Z,99.99
2017-09-26T03:04:15.205Z,99.99
2017-09-26T03:05:25.158Z,99.99
2017-09-26T03:06:35.440Z,99.99
2017-09-26T03:07:45.714Z,99.99
2017-09-26T03:08:55.986Z,99.99
2017-09-26T03:10:06.265Z,99.99
2017-09-26T03:11:16.221Z,99.99
2017-09-26T03:12:26.502Z,99.99
2017-09-26T03:13:36.776Z,99.99
2017-09-26T03:14:47.056Z,99.99
2017-09-26T03:15:56.686Z,99.99
2017-09-26T03:17:06.959Z,99.99
2017-09-26T03:18:16.919Z,99.99
2017-09-26T03:19:26.560Z,99.99
2017-09-26T03:20:36.520Z,99.99
2017-09-26T03:21:46.481Z,99.99
2017-09-26T03:22:56.435Z,99.99
2017-09-26T03:24:06.384Z,99.99
2017-09-26T03:25:16.334Z,99.99
2017-09-26T03:26:26.625Z,99.99
2017-09-26T03:27:36.575Z,99.99
2017-09-26T03:28:46.850Z,99.99
2017-09-26T03:29:56.802Z,99.99
2017-09-26T03:31:07.090Z,99.99
2017-09-26T03:32:17.050Z,99.99
2017-09-26T03:33:27.325Z,99.99
2017-09-26T03:34:37.278Z,99.99
2017-09-26T03:35:46.905Z,99.99
2017-09-26T03:36:56.856Z,99.99
2017-09-26T03:38:07.128Z,99.99
2017-09-26T03:39:16.764Z,99.99
2017-09-26T03:40:27.031Z,99.99
2017-09-26T03:41:36.660Z,99.99
2017-09-26T03:42:46.948Z,99.99
2017-09-26T03:43:56.904Z,99.99
2017-09-26T03:45:06.857Z,99.99
2017-09-26T03:46:16.811Z,99.99
2017-09-26T03:47:26.766Z,99.99
2017-09-26T03:48:37.049Z,99.99
2017-09-26T03:49:47.325Z,99.99
2017-09-26T03:50:57.604Z,99.99
2017-09-26T03:52:07.894Z,99.99
2017-09-26T03:53:17.850Z,99.99
2017-09-26T03:54:27.805Z,99.99
2017-09-26T03:55:38.089Z,99.99
2017-09-26T03:56:47.721Z,99.99
2017-09-26T03:57:57.999Z,99.99
2017-09-26T03:59:07.949Z,99.99
2017-09-26T04:00:17.921Z,99.99
2017-09-26T04:01:27.548Z,99.99
2017-09-26T04:02:37.504Z,99.99
2017-09-26T04:03:47.137Z,99.99
2017-09-26T04:04:57.090Z,99.99
2017-09-26T04:06:07.043Z,99.99
2017-09-26T04:07:16.673Z,99.99
2017-09-26T04:08:26.948Z,99.99
2017-09-26T04:09:37.219Z,99.99
2017-09-26T04:10:47.177Z,99.99
2017-09-26T04:11:57.449Z,99.99
2017-09-26T04:13:07.727Z,99.99
2017-09-26T04:14:18.004Z,99.99
2017-09-26T04:15:27.959Z,99.99
2017-09-26T04:16:38.239Z,99.99
2017-09-26T04:17:48.197Z,99.99
2017-09-26T04:18:58.470Z,99.99
2017-09-26T04:20:08.747Z,99.99
2017-09-26T04:21:18.704Z,99.99
2017-09-26T04:22:28.336Z,99.99
2017-09-26T04:23:38.292Z,99.99
2017-09-26T04:24:48.565Z,99.99
2017-09-26T04:25:58.842Z,99.99
2017-09-26T04:27:09.153Z,99.99
2017-09-26T04:28:18.785Z,99.99
2017-09-26T04:29:29.062Z,99.99
2017-09-26T04:30:39.334Z,99.99
2017-09-26T04:31:49.609Z,99.99
2017-09-26T04:32:59.877Z,99.99
2017-09-26T04:34:09.228Z,99.99
2017-09-26T04:35:19.506Z,99.99
2017-09-26T04:36:29.467Z,99.99
2017-09-26T04:37:39.753Z,99.99
2017-09-26T04:38:49.707Z,99.99
2017-09-26T04:39:59.657Z,99.99
2017-09-26T04:41:09.932Z,99.99
2017-09-26T04:42:19.883Z,99.99
2017-09-26T04:43:30.171Z,99.99
2017-09-26T04:44:40.450Z,99.99
2017-09-26T04:45:50.408Z,99.99
2017-09-26T04:47:00.039Z,99.99
2017-09-26T04:48:09.673Z,99.99
2017-09-26T04:49:19.957Z,99.99
2017-09-26T04:50:29.592Z,99.99
2017-09-26T04:51:39.873Z,99.99
2017-09-26T04:52:50.154Z,99.99
2017-09-26T04:54:00.425Z,99.99
2017-09-26T04:55:09.737Z,99.99
2017-09-26T04:56:19.697Z,99.99
2017-09-26T04:57:29.967Z,99.99
2017-09-26T04:58:39.925Z,99.99
2017-09-26T04:59:49.873Z,99.99
2017-09-26T05:01:00.147Z,99.99
2017-09-26T05:02:09.792Z,99.99
2017-09-26T05:03:19.423Z,99.99
2017-09-26T05:04:29.373Z,99.99
2017-09-26T05:05:39.650Z,99.99
2017-09-26T05:06:49.926Z,99.99
2017-09-26T05:08:00.205Z,99.99
2017-09-26T05:09:10.478Z,99.99
2017-09-26T05:10:20.430Z,99.99
2017-09-26T05:11:30.701Z,99.99
2017-09-26T05:12:40.976Z,99.99
2017-09-26T05:13:51.247Z,99.99
2017-09-26T05:15:01.193Z,99.99
2017-09-26T05:16:11.474Z,99.99
2017-09-26T05:17:21.429Z,99.99
2017-09-26T05:18:31.696Z,99.99
2017-09-26T05:19:41.989Z,99.99
2017-09-26T05:20:52.272Z,99.99
2017-09-26T05:22:01.920Z,99.99
2017-09-26T05:23:12.195Z,99.99
2017-09-26T05:24:21.828Z,99.99
2017-09-26T05:25:32.103Z,99.99
2017-09-26T05:26:42.374Z,99.99
2017-09-26T05:27:52.685Z,99.99
2017-09-26T05:29:02.972Z,99.99
2017-09-26T05:30:13.247Z,99.99
2017-09-26T05:31:23.199Z,99.99
2017-09-26T05:32:32.827Z,99.99
2017-09-26T05:33:43.110Z,99.99
2017-09-26T05:34:53.067Z,99.99
2017-09-26T05:36:02.700Z,99.99
2017-09-26T05:37:13.010Z,99.99
2017-09-26T05:38:22.641Z,99.99
2017-09-26T05:39:32.915Z,99.99
2017-09-26T05:40:43.193Z,99.99
2017-09-26T05:41:53.469Z,99.99
2017-09-26T05:43:03.749Z,99.99
2017-09-26T05:44:13.727Z,99.99
2017-09-26T05:45:23.997Z,99.99
2017-09-26T05:46:34.280Z,99.99
2017-09-26T05:47:44.554Z,99.99
2017-09-26T05:48:54.182Z,99.99
2017-09-26T05:50:03.814Z,99.99
2017-09-26T05:51:14.087Z,99.99
2017-09-26T05:52:24.041Z,99.99
2017-09-26T05:53:34.313Z,99.99
2017-09-26T05:54:44.289Z,99.99
2017-09-26T05:55:54.565Z,99.99
2017-09-26T05:57:04.518Z,99.99
2017-09-26T05:58:14.471Z,99.99
2017-09-26T05:59:24.102Z,99.99
2017-09-26T06:00:34.382Z,99.99
2017-09-26T06:01:44.342Z,99.99
2017-09-26T06:02:54.616Z,99.99
2017-09-26T06:04:04.569Z,99.99
2017-09-26T06:05:14.845Z,99.99
2017-09-26T06:06:24.806Z,99.99
2017-09-26T06:07:34.769Z,99.99
2017-09-26T06:08:45.048Z,99.99
2017-09-26T06:09:55.012Z,99.99
2017-09-26T06:11:04.963Z,99.99
2017-09-26T06:12:14.919Z,99.99
2017-09-26T06:13:24.874Z,99.99
2017-09-26T06:14:34.498Z,99.99
2017-09-26T06:15:44.772Z,99.99
2017-09-26T06:16:54.402Z,99.99
2017-09-26T06:18:04.356Z,99.99
2017-09-26T06:19:14.308Z,99.99
2017-09-26T06:20:24.579Z,99.99
2017-09-26T06:21:34.858Z,99.99
2017-09-26T06:22:44.814Z,99.99
2017-09-26T06:23:54.764Z,99.99
2017-09-26T06:25:04.434Z,99.99
2017-09-26T06:26:14.710Z,99.99
2017-09-26T06:27:24.988Z,99.99
2017-09-26T06:28:35.270Z,99.99
2017-09-26T06:29:45.549Z,99.99
2017-09-26T06:30:55.822Z,99.99
2017-09-26T06:32:06.093Z,99.99
2017-09-26T06:33:16.364Z,99.99
2017-09-26T06:34:25.994Z,99.99
2017-09-26T06:35:35.942Z,99.99
2017-09-26T06:36:46.231Z,99.99
2017-09-26T06:37:56.526Z,99.99
2017-09-26T06:39:06.840Z,99.99
2017-09-26T06:40:17.136Z,99.99
2017-09-26T06:41:27.128Z,99.99
2017-09-26T06:42:37.436Z,99.99
2017-09-26T06:47:36.212Z,99.99
2017-09-26T06:48:46.163Z,99.99
2017-09-26T06:49:56.431Z,99.99
2017-09-26T06:51:06.711Z,99.99
2017-09-26T06:52:16.988Z,99.99
2017-09-26T06:53:26.618Z,99.99
2017-09-26T06:54:36.900Z,99.99
2017-09-26T06:55:46.875Z,99.99
2017-09-26T06:56:56.842Z,99.99
2017-09-26T06:58:07.152Z,99.99
2017-09-26T06:59:17.084Z,99.99
2017-09-26T07:00:26.716Z,99.99
2017-09-26T07:01:36.989Z,99.99
2017-09-26T07:02:47.266Z,99.99
2017-09-26T07:03:56.902Z,99.99
2017-09-26T07:05:06.854Z,99.99
2017-09-26T07:06:17.144Z,99.99
2017-09-26T07:07:27.447Z,99.99
2017-09-26T07:08:37.404Z,99.99
2017-09-26T07:09:47.034Z,99.99
2017-09-26T07:10:56.986Z,99.99
2017-09-26T07:12:07.263Z,99.99
2017-09-26T07:13:17.553Z,99.99
2017-09-26T07:14:27.840Z,99.99
2017-09-26T07:15:37.791Z,99.99
2017-09-26T07:16:48.073Z,99.99
2017-09-26T07:17:58.035Z,99.99
2017-09-26T07:19:08.316Z,99.99
2017-09-26T07:20:17.947Z,99.99
2017-09-26T07:21:28.218Z,99.99
2017-09-26T07:22:38.166Z,99.99
2017-09-26T07:23:47.808Z,99.99
2017-09-26T07:24:57.765Z,99.99
2017-09-26T07:26:07.395Z,99.99
2017-09-26T07:27:16.715Z,99.99
2017-09-26T07:28:26.667Z,99.99
2017-09-26T07:29:36.949Z,99.99
2017-09-26T07:30:46.903Z,99.99
2017-09-26T07:31:57.178Z,99.99
2017-09-26T07:33:07.128Z,99.99
2017-09-26T07:34:17.082Z,99.99
2017-09-26T07:35:27.033Z,99.99
2017-09-26T07:36:36.987Z,99.99
2017-09-26T07:37:46.946Z,99.99
2017-09-26T07:38:57.226Z,99.99
2017-09-26T07:40:07.182Z,99.99
2017-09-26T07:41:17.465Z,99.99
2017-09-26T07:42:27.426Z,99.99
2017-09-26T07:43:37.391Z,99.99
2017-09-26T07:44:47.674Z,99.99
2017-09-26T07:45:57.958Z,99.99
2017-09-26T07:47:07.916Z,99.99
2017-09-26T07:48:17.230Z,99.99
2017-09-26T07:49:26.903Z,99.99
2017-09-26T07:50:36.853Z,99.99
2017-09-26T07:51:47.134Z,99.99
2017-09-26T07:52:56.773Z,99.99
2017-09-26T07:54:06.743Z,99.99
2017-09-26T07:55:16.376Z,99.99
2017-09-26T07:56:26.010Z,99.99
2017-09-26T07:57:35.966Z,99.99
2017-09-26T07:58:46.236Z,99.99
2017-09-26T07:59:56.201Z,99.99
2017-09-26T08:01:05.836Z,99.99
2017-09-26T08:02:15.787Z,99.99
2017-09-26T08:03:25.423Z,99.99
2017-09-26T08:04:35.701Z,99.99
2017-09-26T08:05:45.978Z,99.99
2017-09-26T08:06:55.934Z,99.99
2017-09-26T08:08:05.888Z,99.99
2017-09-26T08:09:16.178Z,99.99
2017-09-26T08:10:26.458Z,99.99
2017-09-26T08:11:36.417Z,99.99
2017-09-26T08:12:46.376Z,99.99
2017-09-26T08:13:56.337Z,99.99
2017-09-26T08:15:06.612Z,99.99
2017-09-26T08:16:16.568Z,99.99
2017-09-26T08:17:26.530Z,99.99
2017-09-26T08:18:36.806Z,99.99
2017-09-26T08:19:46.771Z,99.99
2017-09-26T08:20:56.778Z,99.99
2017-09-26T08:22:06.734Z,99.99
2017-09-26T08:23:16.690Z,99.99
2017-09-26T08:24:26.643Z,99.99
2017-09-26T08:25:36.920Z,99.99
2017-09-26T08:26:47.200Z,99.99
2017-09-26T08:27:57.161Z,99.99
2017-09-26T08:29:07.435Z,99.99
2017-09-26T08:30:17.715Z,99.9
2017-09-26T08:31:27.996Z,99.99
2017-09-26T08:32:38.271Z,99.71
2017-09-26T08:33:48.230Z,99.99
2017-09-26T08:34:57.864Z,99.99
2017-09-26T08:36:07.820Z,99.85
2017-09-26T08:37:18.103Z,98.94
2017-09-26T08:38:27.739Z,98.28
2017-09-26T08:39:37.693Z,99.23
2017-09-26T08:40:47.973Z,97.89
2017-09-26T08:41:57.934Z,98.28
2017-09-26T08:43:08.213Z,98.57
2017-09-26T08:44:18.487Z,98.85
2017-09-26T08:45:28.761Z,98.57
2017-09-26T08:46:39.037Z,99.71
2017-09-26T08:47:48.995Z,98.75
2017-09-26T08:48:58.961Z,99.14
2017-09-26T08:50:09.245Z,99.52
2017-09-26T08:51:18.875Z,99.52
2017-09-26T08:52:29.154Z,99.52
2017-09-26T08:53:39.107Z,99.99
2017-09-26T08:54:49.382Z,99.23
2017-09-26T08:55:59.661Z,99.33
2017-09-26T08:57:09.941Z,98.57
2017-09-26T08:58:20.215Z,99.99
2017-09-26T08:59:30.504Z,99.99
2017-09-26T09:00:40.459Z,99.33
2017-09-26T09:01:50.418Z,99.9
2017-09-26T09:03:00.050Z,99.99
2017-09-26T09:04:10.329Z,99.8
2017-09-26T09:05:20.282Z,99.14
2017-09-26T09:06:30.556Z,99.04
2017-09-26T09:07:40.836Z,98.08
2017-09-26T09:08:51.110Z,98.94
2017-09-26T09:10:01.059Z,99.33
2017-09-26T09:11:11.010Z,98.33
2017-09-26T09:12:21.294Z,97.94
2017-09-26T09:13:31.567Z,97.37
2017-09-26T09:14:41.849Z,97.56
2017-09-26T09:15:51.806Z,97.47
2017-09-26T09:17:01.761Z,97.94
2017-09-26T09:18:12.038Z,96.89
2017-09-26T09:19:22.000Z,97.04
2017-09-26T09:20:31.956Z,96.84
2017-09-26T09:21:42.238Z,95.89
2017-09-26T09:22:52.516Z,95.12
2017-09-26T09:24:02.842Z,95.51
2017-09-26T09:25:13.120Z,95.51
2017-09-26T09:26:23.075Z,95.51
2017-09-26T09:27:33.349Z,95.51
2017-09-26T09:28:43.628Z,95.41
2017-09-26T09:29:53.907Z,95.75
2017-09-26T09:31:03.562Z,94.98
2017-09-26T09:32:13.844Z,94.21
2017-09-26T09:33:24.128Z,94.02
2017-09-26T09:34:34.416Z,93.45
2017-09-26T09:35:43.402Z,93.07
2017-09-26T09:36:53.357Z,93.45
2017-09-26T09:38:03.310Z,93.55
2017-09-26T09:39:13.263Z,93.64
2017-09-26T09:40:23.225Z,94.12
2017-09-26T09:41:33.501Z,93.26
2017-09-26T09:42:43.778Z,92.21
2017-09-26T09:43:54.056Z,92.4
2017-09-26T09:45:04.334Z,93.16
2017-09-26T09:46:14.621Z,93.26
2017-09-26T09:47:24.255Z,92.69
2017-09-26T09:48:34.533Z,93.12
2017-09-26T09:49:44.895Z,93.12
2017-09-26T09:50:54.848Z,91.78
2017-09-26T09:52:05.186Z,92.74
2017-09-26T09:53:14.819Z,92.93
2017-09-26T09:54:24.780Z,92.83
2017-09-26T09:55:34.736Z,93.5
2017-09-26T09:56:44.694Z,93.5
2017-09-26T09:57:54.978Z,93.98
2017-09-26T09:59:04.936Z,93.69
2017-09-26T10:00:15.249Z,94.26
2017-09-26T10:01:25.524Z,93.5
2017-09-26T10:02:35.477Z,93.88
2017-09-26T10:03:45.498Z,94.55
2017-09-26T10:04:55.459Z,94.26
2017-09-26T10:06:05.420Z,94.93
2017-09-26T10:07:15.378Z,94.07
2017-09-26T10:08:25.339Z,93.12
2017-09-26T10:09:35.611Z,93.74
2017-09-26T10:10:45.889Z,94.74
2017-09-26T10:11:55.840Z,95.03
2017-09-26T10:13:05.801Z,94.46
2017-09-26T10:14:16.077Z,93.12
2017-09-26T10:15:26.353Z,93.5
2017-09-26T10:16:36.313Z,94.17
2017-09-26T10:17:45.944Z,93.4
2017-09-26T10:18:55.585Z,93.12
2017-09-26T10:20:05.544Z,93.69
2017-09-26T10:21:15.505Z,91.39
2017-09-26T10:22:25.779Z,91.39
2017-09-26T10:23:35.728Z,92.35
2017-09-26T10:24:45.999Z,92.54
2017-09-26T10:25:55.954Z,92.07
2017-09-26T10:27:06.231Z,91.59
2017-09-26T10:28:16.511Z,92.93
2017-09-26T10:29:26.143Z,93.12
2017-09-26T10:30:36.423Z,92.93
2017-09-26T10:31:46.380Z,93.79
2017-09-26T10:32:56.335Z,93.12
2017-09-26T10:34:06.304Z,93.31
2017-09-26T10:35:16.575Z,93.31
2017-09-26T10:36:26.855Z,93.31
2017-09-26T10:37:37.144Z,93.88
2017-09-26T10:38:47.106Z,93.5
2017-09-26T10:39:56.775Z,93.88
2017-09-26T10:41:07.051Z,93.79
2017-09-26T10:42:17.047Z,94.26
2017-09-26T10:43:27.324Z,94.46
2017-09-26T10:44:37.281Z,94.17
2017-09-26T10:45:47.556Z,93.21
2017-09-26T10:46:57.833Z,92.93
2017-09-26T10:48:08.109Z,93.79
2017-09-26T10:49:17.744Z,93.6
2017-09-26T10:50:28.027Z,93.84
2017-09-26T10:51:37.661Z,93.69
2017-09-26T10:52:47.661Z,93.31
2017-09-26T10:53:57.941Z,93.6
2017-09-26T10:55:08.218Z,93.02
2017-09-26T10:56:18.174Z,93.6
2017-09-26T10:57:28.460Z,92.97
2017-09-26T10:58:38.413Z,93.07
2017-09-26T10:59:48.684Z,92.5
2017-09-26T11:00:58.966Z,93.4
2017-09-26T11:02:09.037Z,93.02
2017-09-26T11:03:18.668Z,93.88
2017-09-26T11:04:28.951Z,92.93
2017-09-26T11:05:38.947Z,92.35
2017-09-26T11:06:49.224Z,92.54
2017-09-26T11:07:59.181Z,93.45
2017-09-26T11:09:09.456Z,93.02
2017-09-26T11:10:19.091Z,93.12
2017-09-26T11:11:29.363Z,91.49
2017-09-26T11:12:39.651Z,92.4
2017-09-26T11:13:49.609Z,92.4
2017-09-26T11:14:59.882Z,93.07
2017-09-26T11:16:09.834Z,93.21
2017-09-26T11:17:19.143Z,94.07
2017-09-26T11:18:28.779Z,93.88
2017-09-26T11:19:39.060Z,94.07
2017-09-26T11:20:49.022Z,93.5
2017-09-26T11:21:59.299Z,92.35
2017-09-26T11:23:09.286Z,93.5
2017-09-26T11:24:18.603Z,92.83
2017-09-26T11:25:28.561Z,91.97
2017-09-26T11:26:38.513Z,91.02
2017-09-26T11:27:48.522Z,91.78
2017-09-26T11:28:58.483Z,92.02
2017-09-26T11:30:08.430Z,91.39
2017-09-26T11:31:18.063Z,92.74
2017-09-26T11:32:28.340Z,92.59
2017-09-26T11:33:38.621Z,92.69
2017-09-26T11:34:48.582Z,91.53
2017-09-26T11:35:58.860Z,91.73
2017-09-26T11:37:08.829Z,92.4
2017-09-26T11:38:18.785Z,91.53
2017-09-26T11:39:28.737Z,91.44
2017-09-26T11:40:39.011Z,92.11
2017-09-26T11:41:49.287Z,92.02
2017-09-26T11:42:58.921Z,91.83
2017-09-26T11:44:08.560Z,92.11
2017-09-26T11:45:20.989Z,91.35
2017-09-26T11:46:30.942Z,91.35
2017-09-26T11:47:40.904Z,91.06
2017-09-26T11:48:51.189Z,91.83
2017-09-26T11:50:01.469Z,91.83
2017-09-26T11:51:10.794Z,91.25
2017-09-26T11:52:20.436Z,91.35
2017-09-26T11:53:30.393Z,91.35
2017-09-26T11:54:40.345Z,91.97
2017-09-26T11:55:50.316Z,90.24
2017-09-26T11:56:59.954Z,90.63
2017-09-26T11:58:09.916Z,90.29
2017-09-26T11:59:19.549Z,88.85
2017-09-26T12:00:29.840Z,87.55
2017-09-26T12:01:39.515Z,86.68
2017-09-26T12:02:49.800Z,85.1
2017-09-26T12:03:59.755Z,83.8
2017-09-26T12:05:10.036Z,82.43
2017-09-26T12:06:19.996Z,82.86
2017-09-26T12:07:30.279Z,81.65
2017-09-26T12:08:40.615Z,79.58
2017-09-26T12:09:50.577Z,80.35
2017-09-26T12:11:00.540Z,79.19
2017-09-26T12:12:10.499Z,78.71
2017-09-26T12:13:20.814Z,77.94
2017-09-26T12:14:31.104Z,77.51
2017-09-26T12:15:41.393Z,78
2017-09-26T12:16:51.676Z,78
2017-09-26T12:18:01.640Z,73.83
2017-09-26T12:19:10.959Z,75.07
2017-09-26T12:20:20.276Z,76.67
2017-09-26T12:21:30.250Z,76.96
2017-09-26T12:22:40.531Z,77.69
2017-09-26T12:23:50.844Z,78.27
2017-09-26T12:25:00.694Z,78.36
2017-09-26T12:26:10.659Z,78.27
2017-09-26T12:27:20.959Z,77.78
2017-09-26T12:28:30.595Z,77.69
2017-09-26T12:29:40.238Z,78.27
2017-09-26T12:30:50.194Z,78.55
2017-09-26T12:32:00.476Z,78.27
2017-09-26T12:33:10.755Z,78.65
2017-09-26T12:34:20.392Z,77.69
2017-09-26T12:35:30.676Z,78.52
2017-09-26T12:36:40.972Z,77.78
2017-09-26T12:37:51.247Z,78.23
2017-09-26T12:39:00.558Z,76.5
2017-09-26T12:40:10.526Z,77.17
2017-09-26T12:41:20.482Z,78.52
2017-09-26T12:42:30.446Z,77.78
2017-09-26T12:43:40.735Z,77.98
2017-09-26T12:44:51.022Z,78.08
2017-09-26T12:46:00.990Z,76.09
2017-09-26T12:47:10.631Z,75.94
2017-09-26T12:48:20.592Z,75.98
2017-09-26T12:49:30.874Z,75.69
2017-09-26T12:50:40.515Z,75.24
2017-09-26T12:51:50.799Z,74.09
2017-09-26T12:53:00.442Z,73.71
2017-09-26T12:54:10.725Z,73.71
2017-09-26T12:55:21.008Z,73.03
2017-09-26T12:56:30.971Z,74.15
2017-09-26T12:57:40.931Z,74.73
2017-09-26T12:58:51.219Z,74.4
2017-09-26T13:00:00.858Z,74.21
2017-09-26T13:01:10.498Z,73.92
2017-09-26T13:02:20.465Z,74.75
2017-09-26T13:03:30.750Z,75.71
2017-09-26T13:04:40.711Z,76
2017-09-26T13:05:50.671Z,75.71
2017-09-26T13:07:00.632Z,75.81
2017-09-26T13:08:10.914Z,75.9
2017-09-26T13:09:20.877Z,76.34
2017-09-26T13:10:31.153Z,76.44
2017-09-26T13:11:41.152Z,76.54
2017-09-26T13:12:51.137Z,76.92
2017-09-26T13:14:01.418Z,76.73
2017-09-26T13:15:11.086Z,77.11
2017-09-26T13:16:21.049Z,76.31
2017-09-26T13:17:31.341Z,76.59
2017-09-26T13:18:41.626Z,76.59
2017-09-26T13:19:51.910Z,77.33
2017-09-26T13:21:01.550Z,77.75
2017-09-26T13:22:11.508Z,77.13
2017-09-26T13:23:21.502Z,78.09
2017-09-26T13:24:31.782Z,77.42
2017-09-26T13:25:41.738Z,78
2017-09-26T13:26:52.016Z,78.67
2017-09-26T13:28:01.654Z,79.3
2017-09-26T13:29:11.293Z,78.63
2017-09-26T13:30:21.585Z,79.11
2017-09-26T13:31:31.543Z,79.01
2017-09-26T13:32:41.821Z,79.68
2017-09-26T13:33:52.099Z,79.88
2017-09-26T13:35:02.057Z,79.36
2017-09-26T13:36:12.343Z,80.12
2017-09-26T13:37:22.301Z,80.99
2017-09-26T13:38:32.579Z,80.89
2017-09-26T13:39:42.855Z,80.99
2017-09-26T13:40:52.488Z,81.27
2017-09-26T13:42:02.449Z,81.46
2017-09-26T13:43:12.745Z,81.46
2017-09-26T13:44:22.699Z,82.23
2017-09-26T13:45:32.655Z,82.09
2017-09-26T13:46:42.942Z,82.96
2017-09-26T13:47:53.225Z,82.29
2017-09-26T13:49:03.183Z,82.19
2017-09-26T13:50:12.498Z,82.76
2017-09-26T13:51:22.459Z,82.48
2017-09-26T13:52:32.089Z,82.67
2017-09-26T13:53:42.369Z,80.94
2017-09-26T13:54:52.652Z,81.62
2017-09-26T13:56:02.932Z,82.57
2017-09-26T13:57:12.567Z,82.76
2017-09-26T13:58:22.530Z,83.15
2017-09-26T13:59:31.848Z,82.86
2017-09-26T14:00:42.129Z,83.15
2017-09-26T14:01:51.766Z,83.44
2017-09-26T14:03:02.051Z,83.63
2017-09-26T14:04:12.333Z,84.01
2017-09-26T14:05:22.290Z,83.63
2017-09-26T14:06:31.931Z,83.92
2017-09-26T14:07:41.575Z,83.82
2017-09-26T14:08:51.535Z,83.44
2017-09-26T14:10:01.814Z,83.63
2017-09-26T14:11:11.449Z,84.11
2017-09-26T14:12:21.088Z,84.88
2017-09-26T14:13:31.080Z,84.97
2017-09-26T14:14:41.358Z,84.68
2017-09-26T14:15:51.638Z,84.92
2017-09-26T14:17:01.269Z,84.97
2017-09-26T14:18:10.904Z,85.12
2017-09-26T14:19:20.860Z,85.69
2017-09-26T14:20:30.826Z,85.6
2017-09-26T14:21:41.104Z,85.54
2017-09-26T14:22:50.744Z,85.6
2017-09-26T14:24:00.703Z,85.6
2017-09-26T14:25:10.656Z,85.21
2017-09-26T14:26:20.612Z,86.36
2017-09-26T14:27:30.903Z,86.27
2017-09-26T14:28:40.859Z,85.98
2017-09-26T14:29:51.135Z,86.65
2017-09-26T14:31:01.095Z,85.6
2017-09-26T14:32:11.375Z,85.41
2017-09-26T14:33:21.010Z,86.36
2017-09-26T14:34:30.642Z,86.55
2017-09-26T14:35:40.289Z,86.46
2017-09-26T14:36:49.925Z,86.27
2017-09-26T14:37:59.614Z,86.36
2017-09-26T14:39:09.894Z,86.84
2017-09-26T14:40:20.172Z,86.55
2017-09-26T14:41:30.132Z,86.65
2017-09-26T14:42:40.088Z,86.36
2017-09-26T14:43:50.045Z,85.21
2017-09-26T14:44:59.716Z,86.36
2017-09-26T14:46:09.993Z,86.55
2017-09-26T14:47:20.282Z,86.36
2017-09-26T14:48:29.914Z,87.03
2017-09-26T14:49:40.233Z,86.74
2017-09-26T14:50:50.508Z,87.13
2017-09-26T14:52:00.149Z,86.36
2017-09-26T14:53:10.432Z,86.46
2017-09-26T14:54:20.390Z,86.46
2017-09-26T14:55:30.026Z,87.32
2017-09-26T14:56:40.298Z,86.84
2017-09-26T14:57:50.261Z,86.46
2017-09-26T14:58:59.897Z,87.13
2017-09-26T15:00:10.174Z,87.23
2017-09-26T15:01:19.489Z,86.65
2017-09-26T15:02:29.452Z,86.8
2017-09-26T15:03:39.409Z,86.99
2017-09-26T15:04:49.685Z,87.47
2017-09-26T15:05:59.320Z,87.47
2017-09-26T15:07:08.654Z,86.99
2017-09-26T15:08:18.608Z,87.37